createdAt,value
2022-11-10T00:01:20.005Z,26.47
2022-11-10T00:04:06.400Z,26.80
2022-11-10T00:06:52.835Z,27.80
2022-11-10T00:09:39.646Z,28.30
2022-11-10T00:12:27.414Z,28.43
2022-11-10T00:15:31.440Z,28.87
2022-11-10T00:18:18.124Z,27.30
2022-11-10T00:21:06.762Z,26.60
2022-11-10T00:23:53.385Z,27.90
2022-11-10T00:26:39.841Z,27.67
2022-11-10T00:29:27.615Z,27.87
2022-11-10T00:32:13.822Z,26.60
2022-11-10T00:35:00.385Z,27.87
2022-11-10T00:37:46.802Z,25.83
2022-11-10T00:40:33.504Z,27.27
2022-11-10T00:43:26.216Z,27.37
2022-11-10T00:46:14.645Z,27.27
2022-11-10T00:49:01.456Z,28.30
2022-11-10T00:51:48.188Z,28.47
2022-11-10T00:54:34.603Z,27.57
2022-11-10T00:57:21.038Z,27.37
2022-11-10T01:00:10.113Z,27.67
2022-11-10T01:02:58.261Z,28.47
2022-11-10T01:05:45.695Z,27.83
2022-11-10T01:08:32.258Z,27.60
2022-11-10T01:11:20.904Z,28.37
2022-11-10T01:14:07.566Z,26.30
2022-11-10T01:16:53.930Z,28.03
2022-11-10T01:19:43.134Z,28.10
2022-11-10T01:22:29.727Z,26.50
2022-11-10T01:25:16.276Z,29.40
2022-11-10T01:28:03.053Z,28.53
2022-11-10T01:30:49.354Z,27.97
2022-11-10T01:33:36.197Z,28.07
2022-11-10T01:36:23.948Z,29.27
2022-11-10T01:39:10.344Z,28.17
2022-11-10T01:41:56.707Z,29.07
2022-11-10T01:44:43.546Z,27.93
2022-11-10T01:47:30.212Z,28.70
2022-11-10T01:50:17.141Z,28.67
2022-11-10T01:53:07.857Z,28.03
2022-11-10T01:55:56.012Z,27.43
2022-11-10T01:58:46.983Z,27.00
2022-11-10T02:01:33.529Z,27.67
2022-11-10T02:04:21.638Z,27.77
2022-11-10T02:07:09.299Z,27.97
2022-11-10T02:09:57.308Z,29.00
2022-11-10T02:12:44.732Z,28.50
2022-11-10T02:15:31.378Z,27.87
2022-11-10T02:18:18.033Z,27.07
2022-11-10T02:21:06.926Z,29.37
2022-11-10T02:23:54.996Z,28.40
2022-11-10T02:26:46.594Z,27.60
2022-11-10T02:29:32.957Z,29.07
2022-11-10T02:32:19.642Z,28.20
2022-11-10T02:35:06.956Z,27.73
2022-11-10T02:37:54.796Z,27.57
2022-11-10T02:40:41.688Z,30.00
2022-11-10T02:43:28.330Z,29.60
2022-11-10T02:46:14.798Z,28.03
2022-11-10T02:49:01.267Z,29.30
2022-11-10T02:51:47.477Z,30.13
2022-11-10T02:54:35.148Z,30.77
2022-11-10T02:57:21.532Z,28.00
2022-11-10T03:00:09.618Z,29.30
2022-11-10T03:02:57.750Z,30.53
2022-11-10T03:05:44.326Z,31.50
2022-11-10T03:08:30.757Z,28.83
2022-11-10T03:11:18.650Z,30.83
2022-11-10T03:14:05.017Z,30.10
2022-11-10T03:16:51.365Z,29.70
2022-11-10T03:19:37.827Z,30.27
2022-11-10T03:22:24.675Z,29.87
2022-11-10T03:25:12.768Z,31.27
2022-11-10T03:28:00.762Z,30.30
2022-11-10T03:30:47.500Z,30.43
2022-11-10T03:33:33.857Z,30.90
2022-11-10T03:36:20.228Z,31.07
2022-11-10T03:39:06.717Z,31.63
2022-11-10T03:41:53.788Z,31.17
2022-11-10T03:44:41.564Z,31.47
2022-11-10T03:47:28.086Z,30.73
2022-11-10T03:50:15.567Z,30.07
2022-11-10T03:53:02.747Z,30.80
2022-11-10T03:55:49.514Z,30.53
2022-11-10T03:58:36.861Z,31.17
2022-11-10T04:01:25.133Z,30.27
2022-11-10T04:04:33.571Z,27.43
2022-11-10T04:07:40.193Z,30.63
2022-11-10T04:10:26.884Z,29.60
2022-11-10T04:13:31.531Z,29.90
2022-11-10T04:16:18.269Z,30.20
2022-11-10T04:19:06.382Z,29.67
2022-11-10T04:21:53.508Z,30.17
2022-11-10T04:24:39.990Z,28.73
2022-11-10T04:27:26.556Z,30.83
2022-11-10T04:30:13.194Z,28.93
2022-11-10T04:32:59.496Z,29.10
2022-11-10T04:35:47.271Z,30.03
2022-11-10T04:38:33.812Z,30.80
2022-11-10T04:41:20.177Z,30.87
2022-11-10T04:44:06.804Z,30.10
2022-11-10T04:46:53.194Z,28.60
2022-11-10T04:49:39.844Z,29.20
2022-11-10T04:52:27.634Z,30.30
2022-11-10T04:55:14.308Z,30.50
2022-11-10T04:58:00.712Z,31.13
2022-11-10T05:00:47.217Z,31.43
2022-11-10T05:03:33.849Z,30.20
2022-11-10T05:06:20.618Z,30.17
2022-11-10T05:09:08.796Z,29.97
2022-11-10T05:11:55.115Z,30.37
2022-11-10T05:14:41.724Z,30.37
2022-11-10T05:17:28.261Z,30.77
2022-11-10T05:20:14.773Z,30.57
2022-11-10T05:23:18.911Z,30.20
2022-11-10T05:26:08.427Z,29.80
2022-11-10T05:28:54.942Z,29.60
2022-11-10T05:31:41.433Z,29.70
2022-11-10T05:34:27.750Z,30.93
2022-11-10T05:37:14.316Z,31.10
2022-11-10T05:40:00.787Z,29.90
2022-11-10T05:42:52.844Z,33.07
2022-11-10T05:45:39.787Z,32.43
2022-11-10T05:48:26.208Z,31.43
2022-11-10T05:51:12.559Z,32.33
2022-11-10T05:53:59.036Z,32.80
2022-11-10T05:56:45.970Z,31.57
2022-11-10T05:59:33.692Z,37.03
2022-11-10T06:02:20.119Z,32.10
2022-11-10T06:05:07.594Z,32.13
2022-11-10T06:07:54.317Z,33.90
2022-11-10T06:10:41.634Z,31.90
2022-11-10T06:13:29.322Z,32.43
2022-11-10T06:16:17.323Z,31.30
2022-11-10T06:19:04.125Z,32.33
2022-11-10T06:21:53.972Z,32.57
2022-11-10T06:24:45.401Z,31.97
2022-11-10T06:27:32.001Z,33.43
2022-11-10T06:30:18.712Z,31.80
2022-11-10T06:33:06.710Z,31.70
2022-11-10T06:35:53.986Z,31.60
2022-11-10T06:38:40.721Z,31.60
2022-11-10T06:41:27.077Z,30.20
2022-11-10T06:44:14.060Z,31.93
2022-11-10T06:47:00.780Z,32.23
2022-11-10T06:49:48.751Z,32.63
2022-11-10T06:52:35.266Z,33.17
2022-11-10T06:55:21.927Z,33.47
2022-11-10T06:58:08.349Z,34.03
2022-11-10T07:00:54.856Z,32.37
2022-11-10T07:04:05.138Z,33.03
2022-11-10T07:06:49.621Z,34.47
2022-11-10T07:09:36.173Z,33.23
2022-11-10T07:12:22.882Z,33.40
2022-11-10T07:15:10.941Z,31.90
2022-11-10T07:17:57.545Z,32.63
2022-11-10T07:20:43.936Z,31.73
2022-11-10T07:23:33.405Z,34.37
2022-11-10T07:26:20.132Z,33.17
2022-11-10T07:29:06.981Z,36.47
2022-11-10T07:31:53.978Z,31.87
2022-11-10T07:34:40.649Z,33.40
2022-11-10T07:37:27.137Z,33.27
2022-11-10T07:40:15.282Z,31.43
2022-11-10T07:43:02.448Z,31.83
2022-11-10T07:45:50.454Z,31.63
2022-11-10T07:48:37.132Z,31.60
2022-11-10T07:51:23.827Z,31.80
2022-11-10T07:54:10.711Z,33.20
2022-11-10T07:56:58.638Z,32.23
2022-11-10T07:59:45.143Z,31.73
2022-11-10T08:02:31.546Z,30.43
2022-11-10T08:05:17.945Z,31.07
2022-11-10T08:08:05.089Z,31.57
2022-11-10T08:10:51.824Z,32.00
2022-11-10T08:13:40.076Z,30.77
2022-11-10T08:16:26.589Z,30.57
2022-11-10T08:19:13.120Z,30.70
2022-11-10T08:21:59.451Z,30.20
2022-11-10T08:24:45.888Z,31.73
2022-11-10T08:27:32.493Z,31.70
2022-11-10T08:30:20.363Z,31.60
2022-11-10T08:33:09.363Z,32.90
2022-11-10T08:35:56.115Z,31.53
2022-11-10T08:38:43.034Z,31.57
2022-11-10T08:41:29.638Z,29.67
2022-11-10T08:44:20.663Z,31.10
2022-11-10T08:47:09.021Z,32.03
2022-11-10T08:49:55.707Z,30.17
2022-11-10T08:52:42.114Z,31.20
2022-11-10T08:55:29.182Z,31.80
2022-11-10T08:58:18.163Z,30.83
2022-11-10T09:01:09.203Z,31.40
2022-11-10T09:03:57.312Z,29.17
2022-11-10T09:06:43.925Z,30.47
2022-11-10T09:09:30.863Z,31.50
2022-11-10T09:12:17.485Z,31.33
2022-11-10T09:15:04.549Z,30.33
2022-11-10T09:17:51.046Z,31.50
2022-11-10T09:20:39.433Z,30.93
2022-11-10T09:23:26.460Z,30.90
2022-11-10T09:26:13.115Z,31.03
2022-11-10T09:28:59.764Z,29.77
2022-11-10T09:31:46.820Z,30.37
2022-11-10T09:34:33.410Z,31.10
2022-11-10T09:37:21.497Z,31.20
2022-11-10T09:40:13.239Z,30.47
2022-11-10T09:43:03.805Z,30.97
2022-11-10T09:45:54.855Z,30.97
2022-11-10T09:48:46.404Z,29.07
2022-11-10T09:51:36.870Z,28.80
2022-11-10T09:54:37.470Z,29.30
2022-11-10T09:57:26.898Z,28.70
2022-11-10T10:00:15.996Z,27.03
2022-11-10T10:03:04.297Z,25.80
2022-11-10T10:06:02.324Z,27.10
2022-11-10T10:09:05.000Z,28.20
2022-11-10T10:12:08.952Z,27.53
2022-11-10T10:15:08.798Z,26.90
2022-11-10T10:18:06.444Z,27.50
2022-11-10T10:21:07.534Z,27.57
2022-11-10T10:24:15.218Z,27.37
2022-11-10T10:27:11.555Z,28.27
2022-11-10T10:29:58.173Z,26.60
2022-11-10T10:32:44.719Z,28.23
2022-11-10T10:35:31.993Z,27.50
2022-11-10T10:38:24.107Z,27.73
2022-11-10T10:41:22.542Z,26.30
2022-11-10T10:44:14.730Z,26.13
2022-11-10T10:47:02.953Z,27.93
2022-11-10T10:49:49.605Z,26.47
2022-11-10T10:52:36.215Z,27.23
2022-11-10T10:55:30.138Z,27.73
2022-11-10T10:58:24.328Z,27.07
2022-11-10T11:01:27.493Z,26.57
2022-11-10T11:04:29.235Z,25.67
2022-11-10T11:07:23.362Z,26.73
2022-11-10T11:10:21.033Z,23.13
2022-11-10T11:13:22.124Z,24.40
2022-11-10T11:16:12.517Z,23.30
2022-11-10T11:19:00.680Z,21.57
2022-11-10T11:22:03.579Z,23.87
2022-11-10T11:24:57.776Z,23.40
2022-11-10T11:27:53.361Z,21.30
2022-11-10T11:30:48.971Z,20.50
2022-11-10T11:33:43.597Z,21.50
2022-11-10T11:36:42.630Z,21.07
2022-11-10T11:39:41.550Z,23.47
2022-11-10T11:42:42.925Z,20.90
2022-11-10T11:45:43.005Z,23.97
2022-11-10T11:48:49.845Z,20.13
2022-11-10T11:51:46.618Z,21.00
2022-11-10T11:54:49.114Z,20.00
2022-11-10T11:57:48.258Z,18.87
2022-11-10T12:00:44.887Z,19.93
2022-11-10T12:03:42.804Z,17.87
2022-11-10T12:06:41.809Z,20.10
2022-11-10T12:09:40.977Z,21.03
2022-11-10T12:12:43.980Z,17.17
2022-11-10T12:15:36.492Z,17.20
2022-11-10T12:18:31.580Z,17.57
2022-11-10T12:21:24.341Z,17.83
2022-11-10T12:24:22.702Z,17.37
2022-11-10T12:27:15.779Z,17.20
2022-11-10T12:30:05.746Z,17.57
2022-11-10T12:32:57.578Z,17.80
2022-11-10T12:35:47.134Z,18.90
2022-11-10T12:38:43.959Z,19.63
2022-11-10T12:41:40.429Z,18.67
2022-11-10T12:44:32.109Z,16.87
2022-11-10T12:47:21.287Z,17.47
2022-11-10T12:50:26.327Z,15.00
2022-11-10T12:53:21.062Z,13.67
2022-11-10T12:56:12.842Z,12.97
2022-11-10T12:59:21.205Z,14.77
2022-11-10T13:02:24.623Z,12.03
2022-11-10T13:05:26.036Z,13.67
2022-11-10T13:08:27.770Z,12.87
2022-11-10T13:11:25.298Z,13.40
2022-11-10T13:14:25.865Z,12.67
2022-11-10T13:17:32.301Z,12.00
2022-11-10T13:20:50.931Z,11.57
2022-11-10T13:24:19.700Z,11.60
2022-11-10T13:27:11.664Z,10.77
2022-11-10T13:30:01.053Z,10.80
2022-11-10T13:32:47.575Z,10.40
2022-11-10T13:35:55.285Z,10.77
2022-11-10T13:38:44.212Z,10.90
2022-11-10T13:41:35.521Z,10.60
2022-11-10T13:44:27.964Z,10.80
2022-11-10T13:47:48.998Z,11.07
2022-11-10T13:50:47.825Z,11.43
2022-11-10T13:53:47.482Z,11.23
2022-11-10T13:56:53.393Z,10.03
2022-11-10T13:59:48.917Z,10.00
2022-11-10T14:02:58.886Z,11.27
2022-11-10T14:06:09.686Z,10.50
2022-11-10T14:09:00.583Z,10.70
2022-11-10T14:11:51.523Z,10.40
2022-11-10T14:14:51.138Z,11.00
2022-11-10T14:17:43.100Z,10.73
2022-11-10T14:20:43.408Z,10.77
2022-11-10T14:23:35.618Z,11.67
2022-11-10T14:26:28.224Z,12.33
2022-11-10T14:29:22.886Z,10.90
2022-11-10T14:32:17.659Z,9.73
2022-11-10T14:35:05.170Z,9.90
2022-11-10T14:37:58.054Z,10.83
2022-11-10T14:40:44.828Z,11.87
2022-11-10T14:43:33.267Z,12.10
2022-11-10T14:46:25.612Z,11.23
2022-11-10T14:49:12.147Z,9.83
2022-11-10T14:52:01.380Z,10.03
2022-11-10T14:54:49.523Z,10.80
2022-11-10T14:57:36.049Z,10.07
2022-11-10T15:00:28.604Z,10.63
2022-11-10T15:03:18.904Z,10.27
2022-11-10T15:06:09.364Z,10.93
2022-11-10T15:08:56.237Z,10.53
2022-11-10T15:11:50.525Z,10.10
2022-11-10T15:14:44.671Z,12.33
2022-11-10T15:17:51.547Z,12.50
2022-11-10T15:20:39.995Z,13.40
2022-11-10T15:23:33.664Z,12.87
2022-11-10T15:26:22.685Z,12.93
2022-11-10T15:29:21.130Z,12.30
2022-11-10T15:32:15.900Z,13.20
2022-11-10T16:19:45.053Z,22.53
2022-11-10T16:22:31.451Z,20.67
2022-11-10T16:25:25.211Z,20.77
2022-11-10T16:28:18.433Z,20.90
2022-11-10T16:31:09.752Z,21.70
2022-11-10T16:33:56.474Z,20.80
2022-11-10T16:36:46.220Z,21.43
2022-11-10T16:39:32.625Z,21.50
2022-11-10T16:42:19.276Z,21.67
2022-11-10T16:45:06.295Z,21.53
2022-11-10T16:47:54.717Z,21.83
2022-11-10T16:50:41.428Z,20.47
2022-11-10T16:53:31.360Z,22.60
2022-11-10T16:56:20.643Z,24.37
2022-11-10T16:59:07.105Z,23.23
2022-11-10T17:01:55.078Z,22.83
2022-11-10T17:04:41.511Z,22.53
2022-11-10T17:07:28.870Z,22.70
2022-11-10T17:10:18.390Z,22.73
2022-11-10T17:13:05.312Z,24.50
2022-11-10T17:15:54.487Z,21.83
2022-11-10T17:18:41.356Z,22.93
2022-11-10T17:21:32.950Z,24.60
2022-11-10T17:24:19.846Z,23.97
2022-11-10T17:27:07.919Z,22.17
2022-11-10T17:29:54.527Z,22.83
2022-11-10T17:33:03.722Z,26.30
2022-11-10T17:35:50.208Z,32.87
2022-11-10T17:38:38.361Z,29.53
2022-11-10T17:41:24.820Z,26.40
2022-11-10T17:44:15.015Z,25.23
2022-11-10T17:47:01.324Z,23.73
2022-11-10T17:49:47.686Z,23.93
2022-11-10T17:52:34.203Z,22.67
2022-11-10T17:55:22.525Z,22.30
2022-11-10T17:58:10.132Z,22.33
2022-11-10T18:00:58.198Z,22.03
2022-11-10T18:03:44.616Z,22.73
2022-11-10T18:06:32.372Z,24.13
2022-11-10T18:09:19.077Z,26.83
2022-11-10T18:12:05.867Z,28.43
2022-11-10T18:14:52.365Z,29.23
2022-11-10T18:17:40.252Z,25.83
2022-11-10T18:20:26.714Z,24.00
2022-11-10T18:23:13.673Z,25.03
2022-11-10T18:26:05.188Z,25.07
2022-11-10T18:28:51.975Z,25.23
2022-11-10T18:31:38.892Z,24.87
2022-11-10T18:34:26.986Z,24.20
2022-11-10T18:37:19.752Z,24.87
2022-11-10T18:40:07.373Z,23.80
2022-11-10T18:42:57.053Z,26.70
2022-11-10T18:45:43.870Z,25.50
2022-11-10T18:48:34.692Z,24.33
2022-11-10T18:51:25.179Z,24.60
2022-11-10T18:54:12.088Z,25.13
2022-11-10T18:56:58.849Z,25.43
2022-11-10T18:59:45.606Z,27.07
2022-11-10T19:02:32.346Z,25.77
2022-11-10T19:05:19.041Z,26.43
2022-11-10T19:08:08.069Z,26.10
2022-11-10T19:10:55.145Z,25.33
2022-11-10T19:13:42.165Z,27.23
2022-11-10T19:16:30.056Z,27.10
2022-11-10T19:19:16.705Z,25.70
2022-11-10T19:22:03.379Z,26.33
2022-11-10T19:25:07.583Z,24.90
2022-11-10T19:27:55.014Z,24.83
2022-11-10T19:30:41.467Z,24.43
2022-11-10T19:33:34.936Z,24.63
2022-11-10T19:36:38.649Z,24.80
2022-11-10T19:39:25.669Z,24.83
2022-11-10T19:42:13.337Z,24.20
2022-11-10T19:45:00.505Z,24.50
2022-11-10T19:47:46.950Z,23.77
2022-11-10T19:50:33.490Z,24.50
2022-11-10T19:53:20.151Z,25.37
2022-11-10T19:56:08.692Z,26.63
2022-11-10T19:58:56.636Z,26.00
2022-11-10T20:01:43.377Z,25.23
2022-11-10T20:04:30.417Z,25.97
2022-11-10T20:07:34.554Z,25.60
2022-11-10T20:10:21.307Z,24.60
2022-11-10T20:13:08.045Z,24.63
2022-11-10T20:15:55.878Z,24.23
2022-11-10T20:18:42.927Z,23.90
2022-11-10T20:21:29.759Z,24.37
2022-11-10T20:24:16.434Z,25.73
2022-11-10T20:27:02.902Z,24.40
2022-11-10T20:29:49.196Z,28.83
2022-11-10T20:32:37.309Z,26.07
2022-11-10T20:35:24.270Z,27.23
2022-11-10T20:38:11.166Z,29.53
2022-11-10T20:41:09.113Z,27.10
2022-11-10T20:43:55.978Z,27.33
2022-11-10T20:46:54.558Z,27.83
2022-11-10T20:49:43.212Z,28.27
2022-11-10T20:52:29.690Z,27.63
2022-11-10T20:55:18.485Z,28.80
2022-11-10T20:58:05.737Z,27.57
2022-11-10T21:00:53.062Z,27.93
2022-11-10T21:03:39.910Z,28.63
2022-11-10T21:06:27.982Z,27.33
2022-11-10T21:09:14.764Z,27.57
2022-11-10T21:12:18.813Z,27.47
2022-11-10T21:15:06.215Z,30.10
2022-11-10T21:17:52.917Z,29.03
2022-11-10T21:20:39.283Z,29.20
2022-11-10T21:23:27.161Z,28.20
2022-11-10T21:26:13.700Z,30.37
2022-11-10T21:29:00.459Z,31.20
2022-11-10T21:31:46.924Z,30.50
2022-11-10T21:34:33.880Z,29.03
2022-11-10T21:37:20.378Z,31.03
2022-11-10T21:40:10.045Z,29.43
2022-11-10T21:42:56.950Z,28.43
2022-11-10T21:45:43.447Z,29.60
2022-11-10T21:48:29.979Z,28.47
2022-11-10T21:51:16.206Z,30.20
2022-11-10T21:54:02.750Z,33.03
2022-11-10T21:56:50.637Z,38.57
2022-11-10T21:59:37.121Z,43.53
2022-11-10T22:02:23.647Z,36.90
2022-11-10T22:05:10.426Z,42.03
2022-11-10T22:07:57.280Z,43.87
2022-11-10T22:11:15.700Z,35.67
2022-11-10T22:14:30.153Z,39.77
2022-11-10T22:17:34.595Z,35.83
2022-11-10T22:20:21.561Z,38.60
2022-11-10T22:23:07.966Z,36.03
2022-11-10T22:25:54.188Z,35.67
2022-11-10T22:28:41.147Z,32.97
2022-11-10T22:31:28.982Z,34.93
2022-11-10T22:34:15.410Z,35.33
2022-11-10T22:37:01.963Z,32.03
2022-11-10T22:40:05.944Z,30.27
2022-11-10T22:43:09.967Z,29.57
2022-11-10T22:45:56.572Z,29.87
2022-11-10T22:48:44.459Z,29.87
2022-11-10T22:51:32.534Z,30.50
2022-11-10T22:54:20.714Z,28.60
2022-11-10T22:57:07.222Z,28.37
2022-11-10T22:59:53.932Z,29.37
2022-11-10T23:02:40.563Z,30.07
2022-11-10T23:05:28.468Z,29.60
2022-11-10T23:08:14.918Z,29.57
2022-11-10T23:11:02.564Z,28.37
2022-11-10T23:13:50.653Z,27.73
2022-11-10T23:16:37.088Z,27.07
2022-11-10T23:19:23.662Z,28.50
2022-11-10T23:22:11.433Z,27.17
2022-11-10T23:24:58.413Z,28.03
2022-11-10T23:27:44.986Z,27.10
2022-11-10T23:30:31.430Z,27.00
2022-11-10T23:33:17.906Z,27.83
2022-11-10T23:36:04.843Z,26.70
2022-11-10T23:38:53.083Z,25.90
2022-11-10T23:41:39.575Z,25.63
2022-11-10T23:44:26.233Z,26.13
2022-11-10T23:47:12.639Z,25.60
2022-11-10T23:49:58.997Z,25.27
2022-11-10T23:52:45.523Z,26.07
2022-11-10T23:55:33.566Z,25.50
2022-11-10T23:58:20.289Z,25.77
